sensor_id;sensor_type;location;lat;lon;timestamp;P1;durP1;ratioP1;P2;durP2;ratioP2
38238;SDS011;24035;48.900;9.188;2023-03-13T00:00:50;5.30;;;1.48;;
38238;SDS011;24035;48.900;9.188;2023-03-13T00:03:17;10.77;;;1.17;;
38238;SDS011;24035;48.900;9.188;2023-03-13T00:05:43;8.95;;;1.23;;
38238;SDS011;24035;48.900;9.188;2023-03-13T00:08:08;8.98;;;1.15;;
38238;SDS011;24035;48.900;9.188;2023-03-13T00:10:40;5.35;;;1.27;;
38238;SDS011;24035;48.900;9.188;2023-03-13T00:13:07;7.32;;;0.80;;
38238;SDS011;24035;48.900;9.188;2023-03-13T00:15:33;4.22;;;0.90;;
38238;SDS011;24035;48.900;9.188;2023-03-13T00:17:59;6.13;;;1.65;;
38238;SDS011;24035;48.900;9.188;2023-03-13T00:20:24;8.50;;;1.50;;
38238;SDS011;24035;48.900;9.188;2023-03-13T00:22:50;5.22;;;1.45;;
38238;SDS011;24035;48.900;9.188;2023-03-13T00:25:16;5.18;;;1.20;;
38238;SDS011;24035;48.900;9.188;2023-03-13T00:27:42;4.72;;;1.52;;
38238;SDS011;24035;48.900;9.188;2023-03-13T00:30:08;7.28;;;1.27;;
38238;SDS011;24035;48.900;9.188;2023-03-13T00:32:39;6.53;;;1.20;;
38238;SDS011;24035;48.900;9.188;2023-03-13T00:35:10;5.57;;;1.10;;
38238;SDS011;24035;48.900;9.188;2023-03-13T00:37:36;9.23;;;1.55;;
38238;SDS011;24035;48.900;9.188;2023-03-13T00:40:02;6.88;;;1.15;;
38238;SDS011;24035;48.900;9.188;2023-03-13T00:42:29;5.65;;;1.73;;
38238;SDS011;24035;48.900;9.188;2023-03-13T00:44:55;7.15;;;1.55;;
38238;SDS011;24035;48.900;9.188;2023-03-13T00:47:20;6.70;;;1.40;;
38238;SDS011;24035;48.900;9.188;2023-03-13T00:49:46;5.82;;;1.25;;
38238;SDS011;24035;48.900;9.188;2023-03-13T00:52:12;3.95;;;1.10;;
38238;SDS011;24035;48.900;9.188;2023-03-13T00:54:37;8.63;;;1.42;;
38238;SDS011;24035;48.900;9.188;2023-03-13T00:57:03;5.43;;;1.45;;
38238;SDS011;24035;48.900;9.188;2023-03-13T00:59:29;7.28;;;1.52;;
38238;SDS011;24035;48.900;9.188;2023-03-13T01:01:54;6.60;;;1.35;;
38238;SDS011;24035;48.900;9.188;2023-03-13T01:04:20;8.77;;;1.50;;
38238;SDS011;24035;48.900;9.188;2023-03-13T01:06:46;5.13;;;1.40;;
38238;SDS011;24035;48.900;9.188;2023-03-13T01:09:12;6.35;;;1.20;;
38238;SDS011;24035;48.900;9.188;2023-03-13T01:11:39;4.80;;;1.20;;
38238;SDS011;24035;48.900;9.188;2023-03-13T01:14:08;5.10;;;1.13;;
38238;SDS011;24035;48.900;9.188;2023-03-13T01:16:37;6.28;;;1.27;;
38238;SDS011;24035;48.900;9.188;2023-03-13T01:19:04;6.57;;;1.52;;
38238;SDS011;24035;48.900;9.188;2023-03-13T01:21:32;5.68;;;0.93;;
38238;SDS011;24035;48.900;9.188;2023-03-13T01:23:58;4.82;;;1.40;;
38238;SDS011;24035;48.900;9.188;2023-03-13T01:26:24;6.05;;;1.60;;
38238;SDS011;24035;48.900;9.188;2023-03-13T01:28:51;9.80;;;1.38;;
38238;SDS011;24035;48.900;9.188;2023-03-13T01:31:20;10.57;;;1.63;;
38238;SDS011;24035;48.900;9.188;2023-03-13T01:33:47;4.57;;;1.35;;
38238;SDS011;24035;48.900;9.188;2023-03-13T01:36:15;4.78;;;1.20;;
38238;SDS011;24035;48.900;9.188;2023-03-13T01:38:41;5.15;;;1.02;;
38238;SDS011;24035;48.900;9.188;2023-03-13T01:41:08;4.88;;;1.42;;
38238;SDS011;24035;48.900;9.188;2023-03-13T01:43:36;7.72;;;1.67;;
38238;SDS011;24035;48.900;9.188;2023-03-13T01:51:26;6.57;;;1.27;;
38238;SDS011;24035;48.900;9.188;2023-03-13T01:54:17;6.05;;;1.17;;
38238;SDS011;24035;48.900;9.188;2023-03-13T01:57:05;5.97;;;1.50;;
38238;SDS011;24035;48.900;9.188;2023-03-13T01:59:43;4.70;;;1.13;;
38238;SDS011;24035;48.900;9.188;2023-03-13T02:02:13;3.30;;;0.82;;
38238;SDS011;24035;48.900;9.188;2023-03-13T02:04:43;6.85;;;1.25;;
38238;SDS011;24035;48.900;9.188;2023-03-13T02:07:14;5.50;;;1.15;;
38238;SDS011;24035;48.900;9.188;2023-03-13T02:09:43;7.18;;;1.00;;
38238;SDS011;24035;48.900;9.188;2023-03-13T02:12:17;4.35;;;1.33;;
38238;SDS011;24035;48.900;9.188;2023-03-13T02:14:48;3.58;;;0.85;;
38238;SDS011;24035;48.900;9.188;2023-03-13T02:17:15;5.07;;;0.90;;
38238;SDS011;24035;48.900;9.188;2023-03-13T02:19:42;8.43;;;1.02;;
38238;SDS011;24035;48.900;9.188;2023-03-13T02:22:19;6.80;;;1.10;;
38238;SDS011;24035;48.900;9.188;2023-03-13T02:27:34;4.47;;;1.40;;
38238;SDS011;24035;48.900;9.188;2023-03-13T02:30:00;7.15;;;1.25;;
38238;SDS011;24035;48.900;9.188;2023-03-13T02:32:28;3.65;;;1.00;;
38238;SDS011;24035;48.900;9.188;2023-03-13T02:34:55;6.13;;;1.23;;
38238;SDS011;24035;48.900;9.188;2023-03-13T02:37:27;4.10;;;0.90;;
38238;SDS011;24035;48.900;9.188;2023-03-13T02:39:54;3.95;;;1.05;;
38238;SDS011;24035;48.900;9.188;2023-03-13T02:42:24;6.90;;;1.15;;
38238;SDS011;24035;48.900;9.188;2023-03-13T02:44:50;5.90;;;1.20;;
38238;SDS011;24035;48.900;9.188;2023-03-13T02:47:17;3.63;;;1.08;;
38238;SDS011;24035;48.900;9.188;2023-03-13T02:49:44;7.53;;;1.13;;
38238;SDS011;24035;48.900;9.188;2023-03-13T02:54:50;6.93;;;1.63;;
38238;SDS011;24035;48.900;9.188;2023-03-13T02:57:22;5.07;;;1.33;;
38238;SDS011;24035;48.900;9.188;2023-03-13T02:59:48;5.80;;;1.20;;
38238;SDS011;24035;48.900;9.188;2023-03-13T03:02:14;3.50;;;1.35;;
38238;SDS011;24035;48.900;9.188;2023-03-13T03:04:39;1.88;;;0.50;;
38238;SDS011;24035;48.900;9.188;2023-03-13T03:07:05;7.18;;;0.85;;
38238;SDS011;24035;48.900;9.188;2023-03-13T03:09:31;5.15;;;1.70;;
38238;SDS011;24035;48.900;9.188;2023-03-13T03:11:57;4.18;;;1.00;;
38238;SDS011;24035;48.900;9.188;2023-03-13T03:14:23;5.85;;;1.00;;
38238;SDS011;24035;48.900;9.188;2023-03-13T03:16:48;5.32;;;1.25;;
38238;SDS011;24035;48.900;9.188;2023-03-13T03:19:14;2.60;;;0.70;;
38238;SDS011;24035;48.900;9.188;2023-03-13T03:21:39;5.65;;;0.85;;
38238;SDS011;24035;48.900;9.188;2023-03-13T03:24:05;3.05;;;0.70;;
38238;SDS011;24035;48.900;9.188;2023-03-13T03:26:32;4.68;;;0.77;;
38238;SDS011;24035;48.900;9.188;2023-03-13T03:28:57;9.35;;;1.13;;
38238;SDS011;24035;48.900;9.188;2023-03-13T03:31:23;6.15;;;0.85;;
38238;SDS011;24035;48.900;9.188;2023-03-13T03:33:49;6.10;;;0.77;;
38238;SDS011;24035;48.900;9.188;2023-03-13T03:36:16;6.53;;;1.10;;
38238;SDS011;24035;48.900;9.188;2023-03-13T03:38:44;2.92;;;0.63;;
38238;SDS011;24035;48.900;9.188;2023-03-13T03:41:11;5.35;;;0.63;;
38238;SDS011;24035;48.900;9.188;2023-03-13T03:43:40;4.38;;;0.75;;
38238;SDS011;24035;48.900;9.188;2023-03-13T03:46:06;1.77;;;0.63;;
38238;SDS011;24035;48.900;9.188;2023-03-13T03:48:32;4.68;;;0.82;;
38238;SDS011;24035;48.900;9.188;2023-03-13T03:50:58;3.35;;;0.60;;
38238;SDS011;24035;48.900;9.188;2023-03-13T03:53:24;7.22;;;1.08;;
38238;SDS011;24035;48.900;9.188;2023-03-13T03:55:50;3.05;;;0.65;;
38238;SDS011;24035;48.900;9.188;2023-03-13T03:58:16;1.85;;;0.50;;
38238;SDS011;24035;48.900;9.188;2023-03-13T04:00:43;2.58;;;0.60;;
38238;SDS011;24035;48.900;9.188;2023-03-13T04:03:09;2.08;;;0.57;;
38238;SDS011;24035;48.900;9.188;2023-03-13T04:05:35;3.65;;;0.77;;
38238;SDS011;24035;48.900;9.188;2023-03-13T04:08:01;5.78;;;0.90;;
38238;SDS011;24035;48.900;9.188;2023-03-13T04:10:26;5.20;;;1.02;;
38238;SDS011;24035;48.900;9.188;2023-03-13T04:12:52;4.88;;;0.73;;
38238;SDS011;24035;48.900;9.188;2023-03-13T04:15:17;2.78;;;0.52;;
38238;SDS011;24035;48.900;9.188;2023-03-13T04:17:43;5.30;;;0.88;;
38238;SDS011;24035;48.900;9.188;2023-03-13T04:20:09;2.78;;;0.52;;
38238;SDS011;24035;48.900;9.188;2023-03-13T04:22:39;2.40;;;0.57;;
38238;SDS011;24035;48.900;9.188;2023-03-13T04:25:06;6.75;;;1.55;;
38238;SDS011;24035;48.900;9.188;2023-03-13T04:27:32;4.63;;;1.13;;
38238;SDS011;24035;48.900;9.188;2023-03-13T04:29:58;1.90;;;0.80;;
38238;SDS011;24035;48.900;9.188;2023-03-13T04:32:24;1.63;;;0.60;;
38238;SDS011;24035;48.900;9.188;2023-03-13T04:34:49;3.45;;;0.40;;
38238;SDS011;24035;48.900;9.188;2023-03-13T04:37:15;1.10;;;0.20;;
38238;SDS011;24035;48.900;9.188;2023-03-13T04:39:41;3.20;;;0.60;;
38238;SDS011;24035;48.900;9.188;2023-03-13T04:42:06;1.85;;;0.32;;
38238;SDS011;24035;48.900;9.188;2023-03-13T04:44:34;2.35;;;0.32;;
38238;SDS011;24035;48.900;9.188;2023-03-13T04:47:00;0.57;;;0.30;;
38238;SDS011;24035;48.900;9.188;2023-03-13T04:49:26;1.30;;;0.30;;
38238;SDS011;24035;48.900;9.188;2023-03-13T04:51:52;2.60;;;0.20;;
38238;SDS011;24035;48.900;9.188;2023-03-13T04:54:17;1.80;;;0.40;;
38238;SDS011;24035;48.900;9.188;2023-03-13T04:56:43;0.50;;;0.20;;
38238;SDS011;24035;48.900;9.188;2023-03-13T04:59:11;2.72;;;0.40;;
38238;SDS011;24035;48.900;9.188;2023-03-13T05:01:38;0.60;;;0.25;;
38238;SDS011;24035;48.900;9.188;2023-03-13T05:04:04;1.05;;;0.20;;
38238;SDS011;24035;48.900;9.188;2023-03-13T05:06:30;0.90;;;0.10;;
38238;SDS011;24035;48.900;9.188;2023-03-13T05:08:55;0.63;;;0.20;;
38238;SDS011;24035;48.900;9.188;2023-03-13T05:11:21;0.52;;;0.20;;
38238;SDS011;24035;48.900;9.188;2023-03-13T05:13:47;1.95;;;0.10;;
38238;SDS011;24035;48.900;9.188;2023-03-13T05:16:12;0.40;;;0.10;;
38238;SDS011;24035;48.900;9.188;2023-03-13T05:18:38;0.63;;;0.20;;
38238;SDS011;24035;48.900;9.188;2023-03-13T05:21:04;0.80;;;0.28;;
38238;SDS011;24035;48.900;9.188;2023-03-13T05:23:30;0.55;;;0.20;;
38238;SDS011;24035;48.900;9.188;2023-03-13T05:25:56;1.70;;;0.63;;
38238;SDS011;24035;48.900;9.188;2023-03-13T05:28:22;0.93;;;0.25;;
38238;SDS011;24035;48.900;9.188;2023-03-13T05:30:48;4.43;;;1.05;;
38238;SDS011;24035;48.900;9.188;2023-03-13T05:33:13;0.55;;;0.25;;
38238;SDS011;24035;48.900;9.188;2023-03-13T05:35:40;1.00;;;0.20;;
38238;SDS011;24035;48.900;9.188;2023-03-13T05:38:06;0.75;;;0.25;;
38238;SDS011;24035;48.900;9.188;2023-03-13T05:40:31;1.80;;;0.30;;
38238;SDS011;24035;48.900;9.188;2023-03-13T05:42:57;0.88;;;0.50;;
38238;SDS011;24035;48.900;9.188;2023-03-13T05:45:23;5.18;;;0.88;;
38238;SDS011;24035;48.900;9.188;2023-03-13T05:47:49;0.88;;;0.20;;
38238;SDS011;24035;48.900;9.188;2023-03-13T05:50:15;0.52;;;0.10;;
38238;SDS011;24035;48.900;9.188;2023-03-13T05:52:41;0.65;;;0.13;;
38238;SDS011;24035;48.900;9.188;2023-03-13T05:55:07;0.90;;;0.20;;
38238;SDS011;24035;48.900;9.188;2023-03-13T05:57:33;0.95;;;0.10;;
38238;SDS011;24035;48.900;9.188;2023-03-13T05:59:59;0.43;;;0.10;;
38238;SDS011;24035;48.900;9.188;2023-03-13T06:02:24;1.38;;;0.20;;
38238;SDS011;24035;48.900;9.188;2023-03-13T06:04:50;1.65;;;0.20;;
38238;SDS011;24035;48.900;9.188;2023-03-13T06:07:16;0.82;;;0.10;;
38238;SDS011;24035;48.900;9.188;2023-03-13T06:09:41;1.27;;;0.30;;
38238;SDS011;24035;48.900;9.188;2023-03-13T06:12:07;0.10;;;0.10;;
38238;SDS011;24035;48.900;9.188;2023-03-13T06:14:34;1.80;;;0.60;;
38238;SDS011;24035;48.900;9.188;2023-03-13T06:17:02;1.45;;;0.40;;
38238;SDS011;24035;48.900;9.188;2023-03-13T06:19:28;0.60;;;0.40;;
38238;SDS011;24035;48.900;9.188;2023-03-13T06:21:54;2.35;;;0.32;;
38238;SDS011;24035;48.900;9.188;2023-03-13T06:24:19;0.63;;;0.22;;
38238;SDS011;24035;48.900;9.188;2023-03-13T06:26:47;0.95;;;0.20;;
38238;SDS011;24035;48.900;9.188;2023-03-13T06:29:13;0.70;;;0.20;;
38238;SDS011;24035;48.900;9.188;2023-03-13T06:31:39;0.90;;;0.30;;
38238;SDS011;24035;48.900;9.188;2023-03-13T06:34:05;0.95;;;0.20;;
38238;SDS011;24035;48.900;9.188;2023-03-13T06:36:30;0.30;;;0.10;;
38238;SDS011;24035;48.900;9.188;2023-03-13T06:38:56;2.20;;;0.30;;
38238;SDS011;24035;48.900;9.188;2023-03-13T06:41:22;0.55;;;0.20;;
38238;SDS011;24035;48.900;9.188;2023-03-13T06:43:48;1.35;;;0.20;;
38238;SDS011;24035;48.900;9.188;2023-03-13T06:46:17;1.50;;;0.10;;
38238;SDS011;24035;48.900;9.188;2023-03-13T06:48:45;0.40;;;0.10;;
38238;SDS011;24035;48.900;9.188;2023-03-13T06:51:11;0.40;;;0.20;;
38238;SDS011;24035;48.900;9.188;2023-03-13T06:53:38;1.67;;;0.30;;
38238;SDS011;24035;48.900;9.188;2023-03-13T06:56:04;0.30;;;0.20;;
38238;SDS011;24035;48.900;9.188;2023-03-13T06:58:30;0.10;;;0.00;;
38238;SDS011;24035;48.900;9.188;2023-03-13T07:00:56;0.52;;;0.10;;
38238;SDS011;24035;48.900;9.188;2023-03-13T07:03:22;2.35;;;0.65;;
38238;SDS011;24035;48.900;9.188;2023-03-13T07:05:51;0.60;;;0.20;;
38238;SDS011;24035;48.900;9.188;2023-03-13T07:08:20;0.05;;;0.00;;
38238;SDS011;24035;48.900;9.188;2023-03-13T07:10:45;1.27;;;0.28;;
38238;SDS011;24035;48.900;9.188;2023-03-13T07:13:15;1.00;;;0.20;;
38238;SDS011;24035;48.900;9.188;2023-03-13T07:15:40;0.20;;;0.03;;
38238;SDS011;24035;48.900;9.188;2023-03-13T07:18:06;1.80;;;0.82;;
38238;SDS011;24035;48.900;9.188;2023-03-13T07:20:31;1.42;;;0.25;;
38238;SDS011;24035;48.900;9.188;2023-03-13T07:22:58;0.40;;;0.15;;
38238;SDS011;24035;48.900;9.188;2023-03-13T07:25:23;1.05;;;0.20;;
38238;SDS011;24035;48.900;9.188;2023-03-13T07:27:49;3.58;;;0.40;;
38238;SDS011;24035;48.900;9.188;2023-03-13T07:30:17;0.63;;;0.20;;
38238;SDS011;24035;48.900;9.188;2023-03-13T07:32:43;0.70;;;0.20;;
38238;SDS011;24035;48.900;9.188;2023-03-13T07:35:09;0.10;;;0.10;;
38238;SDS011;24035;48.900;9.188;2023-03-13T07:37:34;0.65;;;0.20;;
38238;SDS011;24035;48.900;9.188;2023-03-13T07:40:00;0.57;;;0.30;;
38238;SDS011;24035;48.900;9.188;2023-03-13T07:42:26;1.38;;;0.30;;
38238;SDS011;24035;48.900;9.188;2023-03-13T07:44:52;0.63;;;0.20;;
38238;SDS011;24035;48.900;9.188;2023-03-13T07:47:17;0.43;;;0.20;;
38238;SDS011;24035;48.900;9.188;2023-03-13T07:49:43;1.50;;;0.65;;
38238;SDS011;24035;48.900;9.188;2023-03-13T07:52:10;0.73;;;0.17;;
38238;SDS011;24035;48.900;9.188;2023-03-13T07:54:36;0.93;;;0.30;;
38238;SDS011;24035;48.900;9.188;2023-03-13T07:57:02;3.60;;;0.43;;
38238;SDS011;24035;48.900;9.188;2023-03-13T07:59:28;0.52;;;0.15;;
38238;SDS011;24035;48.900;9.188;2023-03-13T08:01:54;2.80;;;0.10;;
38238;SDS011;24035;48.900;9.188;2023-03-13T08:04:20;1.20;;;0.32;;
38238;SDS011;24035;48.900;9.188;2023-03-13T08:06:46;2.72;;;0.43;;
38238;SDS011;24035;48.900;9.188;2023-03-13T08:09:11;1.80;;;0.40;;
38238;SDS011;24035;48.900;9.188;2023-03-13T08:11:37;1.52;;;0.60;;
38238;SDS011;24035;48.900;9.188;2023-03-13T08:14:08;0.50;;;0.20;;
38238;SDS011;24035;48.900;9.188;2023-03-13T08:16:34;0.38;;;0.20;;
38238;SDS011;24035;48.900;9.188;2023-03-13T08:19:00;0.63;;;0.22;;
38238;SDS011;24035;48.900;9.188;2023-03-13T08:21:29;0.88;;;0.22;;
38238;SDS011;24035;48.900;9.188;2023-03-13T08:23:59;0.35;;;0.10;;
38238;SDS011;24035;48.900;9.188;2023-03-13T08:26:28;0.45;;;0.20;;
38238;SDS011;24035;48.900;9.188;2023-03-13T08:28:58;1.17;;;0.28;;
38238;SDS011;24035;48.900;9.188;2023-03-13T08:31:31;0.57;;;0.28;;
38238;SDS011;24035;48.900;9.188;2023-03-13T08:34:02;1.20;;;0.38;;
38238;SDS011;24035;48.900;9.188;2023-03-13T08:36:32;4.18;;;0.40;;
38238;SDS011;24035;48.900;9.188;2023-03-13T08:39:02;1.13;;;0.30;;
38238;SDS011;24035;48.900;9.188;2023-03-13T08:41:32;5.15;;;0.77;;
38238;SDS011;24035;48.900;9.188;2023-03-13T08:44:00;0.57;;;0.22;;
38238;SDS011;24035;48.900;9.188;2023-03-13T08:46:30;2.13;;;0.40;;
38238;SDS011;24035;48.900;9.188;2023-03-13T08:48:57;2.03;;;0.30;;
38238;SDS011;24035;48.900;9.188;2023-03-13T08:51:23;1.83;;;0.20;;
38238;SDS011;24035;48.900;9.188;2023-03-13T08:53:50;0.93;;;0.25;;
38238;SDS011;24035;48.900;9.188;2023-03-13T08:56:17;0.70;;;0.10;;
38238;SDS011;24035;48.900;9.188;2023-03-13T08:58:48;1.05;;;0.20;;
38238;SDS011;24035;48.900;9.188;2023-03-13T09:01:15;0.85;;;0.20;;
38238;SDS011;24035;48.900;9.188;2023-03-13T09:03:41;11.15;;;0.95;;
38238;SDS011;24035;48.900;9.188;2023-03-13T09:06:07;0.52;;;0.20;;
38238;SDS011;24035;48.900;9.188;2023-03-13T09:08:34;2.15;;;0.32;;
38238;SDS011;24035;48.900;9.188;2023-03-13T09:11:01;1.00;;;0.40;;
38238;SDS011;24035;48.900;9.188;2023-03-13T09:13:36;2.08;;;0.90;;
38238;SDS011;24035;48.900;9.188;2023-03-13T09:16:07;0.75;;;0.30;;
38238;SDS011;24035;48.900;9.188;2023-03-13T09:18:34;2.42;;;0.45;;
38238;SDS011;24035;48.900;9.188;2023-03-13T09:21:00;1.20;;;0.30;;
38238;SDS011;24035;48.900;9.188;2023-03-13T09:23:27;3.42;;;0.60;;
38238;SDS011;24035;48.900;9.188;2023-03-13T09:25:53;1.10;;;0.35;;
38238;SDS011;24035;48.900;9.188;2023-03-13T09:28:21;1.42;;;0.30;;
38238;SDS011;24035;48.900;9.188;2023-03-13T09:30:47;1.25;;;0.45;;
38238;SDS011;24035;48.900;9.188;2023-03-13T09:33:14;0.63;;;0.20;;
38238;SDS011;24035;48.900;9.188;2023-03-13T09:35:40;1.33;;;0.32;;
38238;SDS011;24035;48.900;9.188;2023-03-13T09:38:06;0.93;;;0.28;;
38238;SDS011;24035;48.900;9.188;2023-03-13T09:40:43;1.77;;;0.40;;
38238;SDS011;24035;48.900;9.188;2023-03-13T09:46:10;1.23;;;0.50;;
38238;SDS011;24035;48.900;9.188;2023-03-13T09:48:42;1.95;;;0.80;;
38238;SDS011;24035;48.900;9.188;2023-03-13T09:51:30;1.85;;;0.60;;
38238;SDS011;24035;48.900;9.188;2023-03-13T09:56:38;1.35;;;0.40;;
38238;SDS011;24035;48.900;9.188;2023-03-13T10:04:48;2.92;;;0.50;;
38238;SDS011;24035;48.900;9.188;2023-03-13T10:07:19;1.20;;;0.40;;
38238;SDS011;24035;48.900;9.188;2023-03-13T10:09:45;2.90;;;0.50;;
38238;SDS011;24035;48.900;9.188;2023-03-13T10:12:18;1.50;;;0.45;;
38238;SDS011;24035;48.900;9.188;2023-03-13T10:14:53;1.02;;;0.47;;
38238;SDS011;24035;48.900;9.188;2023-03-13T10:17:36;0.90;;;0.40;;
38238;SDS011;24035;48.900;9.188;2023-03-13T10:22:42;2.45;;;0.95;;
38238;SDS011;24035;48.900;9.188;2023-03-13T10:27:56;1.42;;;0.47;;
38238;SDS011;24035;48.900;9.188;2023-03-13T10:30:26;1.95;;;0.40;;
38238;SDS011;24035;48.900;9.188;2023-03-13T10:32:58;2.20;;;0.63;;
38238;SDS011;24035;48.900;9.188;2023-03-13T10:35:33;1.55;;;0.57;;
38238;SDS011;24035;48.900;9.188;2023-03-13T10:38:07;2.63;;;0.77;;
38238;SDS011;24035;48.900;9.188;2023-03-13T10:40:42;1.15;;;0.60;;
38238;SDS011;24035;48.900;9.188;2023-03-13T10:43:18;1.70;;;0.47;;
38238;SDS011;24035;48.900;9.188;2023-03-13T10:45:45;1.17;;;0.47;;
38238;SDS011;24035;48.900;9.188;2023-03-13T10:48:14;1.45;;;0.50;;
38238;SDS011;24035;48.900;9.188;2023-03-13T10:50:45;1.48;;;0.50;;
38238;SDS011;24035;48.900;9.188;2023-03-13T10:56:08;1.00;;;0.50;;
38238;SDS011;24035;48.900;9.188;2023-03-13T10:58:46;1.20;;;0.22;;
38238;SDS011;24035;48.900;9.188;2023-03-13T11:03:45;1.25;;;0.45;;
38238;SDS011;24035;48.900;9.188;2023-03-13T11:06:22;2.13;;;0.50;;
38238;SDS011;24035;48.900;9.188;2023-03-13T11:09:15;3.13;;;0.63;;
38238;SDS011;24035;48.900;9.188;2023-03-13T11:11:48;1.02;;;0.52;;
38238;SDS011;24035;48.900;9.188;2023-03-13T11:14:18;3.38;;;0.60;;
38238;SDS011;24035;48.900;9.188;2023-03-13T11:16:55;1.90;;;0.50;;
38238;SDS011;24035;48.900;9.188;2023-03-13T11:19:47;1.05;;;0.40;;
38238;SDS011;24035;48.900;9.188;2023-03-13T11:30:26;3.60;;;0.57;;
38238;SDS011;24035;48.900;9.188;2023-03-13T11:38:47;2.35;;;0.70;;
38238;SDS011;24035;48.900;9.188;2023-03-13T11:42:00;1.02;;;0.50;;
38238;SDS011;24035;48.900;9.188;2023-03-13T11:49:55;1.90;;;0.60;;
38238;SDS011;24035;48.900;9.188;2023-03-13T11:52:37;3.65;;;0.60;;
38238;SDS011;24035;48.900;9.188;2023-03-13T12:01:07;5.00;;;0.63;;
38238;SDS011;24035;48.900;9.188;2023-03-13T12:06:24;1.23;;;0.50;;
38238;SDS011;24035;48.900;9.188;2023-03-13T12:14:17;1.30;;;0.50;;
38238;SDS011;24035;48.900;9.188;2023-03-13T12:16:52;1.75;;;0.40;;
38238;SDS011;24035;48.900;9.188;2023-03-13T12:19:26;1.38;;;0.52;;
38238;SDS011;24035;48.900;9.188;2023-03-13T12:22:06;2.78;;;0.65;;
38238;SDS011;24035;48.900;9.188;2023-03-13T12:24:54;1.65;;;0.60;;
38238;SDS011;24035;48.900;9.188;2023-03-13T12:27:41;2.88;;;0.70;;
38238;SDS011;24035;48.900;9.188;2023-03-13T12:32:54;1.38;;;0.40;;
38238;SDS011;24035;48.900;9.188;2023-03-13T12:35:44;2.22;;;0.85;;
38238;SDS011;24035;48.900;9.188;2023-03-13T12:38:20;1.70;;;0.70;;
38238;SDS011;24035;48.900;9.188;2023-03-13T12:43:49;1.60;;;0.60;;
38238;SDS011;24035;48.900;9.188;2023-03-13T12:46:23;1.65;;;0.50;;
38238;SDS011;24035;48.900;9.188;2023-03-13T12:49:12;3.13;;;0.45;;
38238;SDS011;24035;48.900;9.188;2023-03-13T12:59:36;0.63;;;0.30;;
38238;SDS011;24035;48.900;9.188;2023-03-13T13:02:17;0.80;;;0.38;;
38238;SDS011;24035;48.900;9.188;2023-03-13T13:04:46;1.80;;;0.40;;
38238;SDS011;24035;48.900;9.188;2023-03-13T13:07:23;1.48;;;0.52;;
38238;SDS011;24035;48.900;9.188;2023-03-13T13:12:29;1.38;;;0.68;;
38238;SDS011;24035;48.900;9.188;2023-03-13T13:14:56;1.05;;;0.30;;
38238;SDS011;24035;48.900;9.188;2023-03-13T13:22:55;2.53;;;0.57;;
38238;SDS011;24035;48.900;9.188;2023-03-13T13:27:47;1.17;;;0.50;;
38238;SDS011;24035;48.900;9.188;2023-03-13T13:32:48;2.00;;;0.70;;
38238;SDS011;24035;48.900;9.188;2023-03-13T13:35:32;4.90;;;0.52;;
38238;SDS011;24035;48.900;9.188;2023-03-13T13:40:59;1.02;;;0.50;;
38238;SDS011;24035;48.900;9.188;2023-03-13T13:48:34;1.15;;;0.40;;
38238;SDS011;24035;48.900;9.188;2023-03-13T13:53:43;1.30;;;0.55;;
38238;SDS011;24035;48.900;9.188;2023-03-13T13:56:28;0.52;;;0.28;;
38238;SDS011;24035;48.900;9.188;2023-03-13T13:59:04;1.35;;;0.70;;
38238;SDS011;24035;48.900;9.188;2023-03-13T14:01:49;2.13;;;0.32;;
38238;SDS011;24035;48.900;9.188;2023-03-13T14:04:28;1.05;;;0.38;;
38238;SDS011;24035;48.900;9.188;2023-03-13T14:07:00;1.30;;;0.40;;
38238;SDS011;24035;48.900;9.188;2023-03-13T14:11:53;2.05;;;0.30;;
38238;SDS011;24035;48.900;9.188;2023-03-13T14:14:21;0.93;;;0.32;;
38238;SDS011;24035;48.900;9.188;2023-03-13T14:16:51;0.50;;;0.20;;
38238;SDS011;24035;48.900;9.188;2023-03-13T14:22:05;0.77;;;0.22;;
38238;SDS011;24035;48.900;9.188;2023-03-13T14:24:33;5.45;;;0.40;;
38238;SDS011;24035;48.900;9.188;2023-03-13T14:26:58;1.58;;;0.40;;
38238;SDS011;24035;48.900;9.188;2023-03-13T14:29:25;3.55;;;0.43;;
38238;SDS011;24035;48.900;9.188;2023-03-13T14:31:55;1.73;;;0.60;;
38238;SDS011;24035;48.900;9.188;2023-03-13T14:34:22;2.67;;;0.40;;
38238;SDS011;24035;48.900;9.188;2023-03-13T14:41:55;4.03;;;0.30;;
38238;SDS011;24035;48.900;9.188;2023-03-13T14:44:31;0.85;;;0.30;;
38238;SDS011;24035;48.900;9.188;2023-03-13T14:46:59;1.30;;;0.30;;
38238;SDS011;24035;48.900;9.188;2023-03-13T14:49:29;1.20;;;0.40;;
38238;SDS011;24035;48.900;9.188;2023-03-13T14:52:03;1.17;;;0.50;;
38238;SDS011;24035;48.900;9.188;2023-03-13T14:54:36;1.02;;;0.40;;
38238;SDS011;24035;48.900;9.188;2023-03-13T14:57:19;1.15;;;0.30;;
38238;SDS011;24035;48.900;9.188;2023-03-13T14:59:48;1.35;;;0.50;;
38238;SDS011;24035;48.900;9.188;2023-03-13T15:02:15;1.65;;;0.43;;
38238;SDS011;24035;48.900;9.188;2023-03-13T15:05:01;0.90;;;0.30;;
38238;SDS011;24035;48.900;9.188;2023-03-13T15:07:34;1.23;;;0.73;;
38238;SDS011;24035;48.900;9.188;2023-03-13T15:13:31;0.88;;;0.32;;
38238;SDS011;24035;48.900;9.188;2023-03-13T15:16:00;0.82;;;0.30;;
38238;SDS011;24035;48.900;9.188;2023-03-13T15:18:27;4.50;;;0.47;;
38238;SDS011;24035;48.900;9.188;2023-03-13T15:21:20;1.27;;;0.50;;
38238;SDS011;24035;48.900;9.188;2023-03-13T15:23:48;0.98;;;0.35;;
38238;SDS011;24035;48.900;9.188;2023-03-13T15:26:16;4.38;;;0.43;;
38238;SDS011;24035;48.900;9.188;2023-03-13T15:28:42;2.13;;;0.40;;
38238;SDS011;24035;48.900;9.188;2023-03-13T15:31:09;0.98;;;0.30;;
38238;SDS011;24035;48.900;9.188;2023-03-13T15:33:37;2.95;;;0.60;;
38238;SDS011;24035;48.900;9.188;2023-03-13T15:36:03;1.65;;;0.60;;
38238;SDS011;24035;48.900;9.188;2023-03-13T15:38:29;1.25;;;0.38;;
38238;SDS011;24035;48.900;9.188;2023-03-13T15:40:54;1.42;;;0.45;;
38238;SDS011;24035;48.900;9.188;2023-03-13T15:43:20;0.90;;;0.30;;
38238;SDS011;24035;48.900;9.188;2023-03-13T15:45:47;2.42;;;0.60;;
38238;SDS011;24035;48.900;9.188;2023-03-13T15:50:56;1.48;;;0.50;;
38238;SDS011;24035;48.900;9.188;2023-03-13T15:53:25;0.63;;;0.30;;
38238;SDS011;24035;48.900;9.188;2023-03-13T15:55:54;3.30;;;0.55;;
38238;SDS011;24035;48.900;9.188;2023-03-13T15:58:22;1.92;;;0.70;;
38238;SDS011;24035;48.900;9.188;2023-03-13T16:00:48;0.85;;;0.40;;
38238;SDS011;24035;48.900;9.188;2023-03-13T16:03:18;2.22;;;0.38;;
38238;SDS011;24035;48.900;9.188;2023-03-13T16:05:49;0.52;;;0.30;;
38238;SDS011;24035;48.900;9.188;2023-03-13T16:08:17;1.88;;;0.38;;
38238;SDS011;24035;48.900;9.188;2023-03-13T16:10:44;1.48;;;0.38;;
38238;SDS011;24035;48.900;9.188;2023-03-13T16:13:10;3.17;;;0.77;;
38238;SDS011;24035;48.900;9.188;2023-03-13T16:15:36;4.07;;;0.35;;
38238;SDS011;24035;48.900;9.188;2023-03-13T16:18:02;1.65;;;1.08;;
38238;SDS011;24035;48.900;9.188;2023-03-13T16:20:29;2.22;;;0.52;;
38238;SDS011;24035;48.900;9.188;2023-03-13T16:22:56;1.98;;;0.40;;
38238;SDS011;24035;48.900;9.188;2023-03-13T16:25:22;2.10;;;0.50;;
38238;SDS011;24035;48.900;9.188;2023-03-13T16:27:50;1.92;;;0.77;;
38238;SDS011;24035;48.900;9.188;2023-03-13T16:30:20;1.67;;;0.55;;
38238;SDS011;24035;48.900;9.188;2023-03-13T16:32:47;2.83;;;0.60;;
38238;SDS011;24035;48.900;9.188;2023-03-13T16:35:13;2.17;;;0.50;;
38238;SDS011;24035;48.900;9.188;2023-03-13T16:37:39;3.75;;;0.47;;
38238;SDS011;24035;48.900;9.188;2023-03-13T16:42:42;1.20;;;0.43;;
38238;SDS011;24035;48.900;9.188;2023-03-13T16:45:08;2.72;;;0.70;;
38238;SDS011;24035;48.900;9.188;2023-03-13T16:47:34;1.85;;;0.68;;
38238;SDS011;24035;48.900;9.188;2023-03-13T16:52:50;2.05;;;0.30;;
38238;SDS011;24035;48.900;9.188;2023-03-13T16:55:17;2.08;;;0.50;;
38238;SDS011;24035;48.900;9.188;2023-03-13T16:57:43;0.77;;;0.30;;
38238;SDS011;24035;48.900;9.188;2023-03-13T17:00:15;2.13;;;0.43;;
38238;SDS011;24035;48.900;9.188;2023-03-13T17:02:43;3.35;;;0.70;;